sensor_id;sensor_type;location;lat;lon;timestamp;pressure;altitude;pressure_sealevel;temperature;humidity
41250;BME280;26984;59.928;30.306;2023-04-24T00:00:07;100509.88;;;13.06;58.88
41250;BME280;26984;59.928;30.306;2023-04-24T00:02:35;100505.88;;;13.08;59.00
41250;BME280;26984;59.928;30.306;2023-04-24T00:05:05;100505.66;;;13.10;58.70
41250;BME280;26984;59.928;30.306;2023-04-24T00:07:32;100502.94;;;13.10;59.15
41250;BME280;26984;59.928;30.306;2023-04-24T00:10:00;100506.00;;;13.13;58.58
41250;BME280;26984;59.928;30.306;2023-04-24T00:12:27;100508.34;;;13.22;59.10
41250;BME280;26984;59.928;30.306;2023-04-24T00:14:54;100504.22;;;13.19;59.03
41250;BME280;26984;59.928;30.306;2023-04-24T00:17:22;100502.91;;;13.22;59.27
41250;BME280;26984;59.928;30.306;2023-04-24T00:19:49;100499.16;;;13.23;59.50
41250;BME280;26984;59.928;30.306;2023-04-24T00:22:18;100493.75;;;13.23;59.41
41250;BME280;26984;59.928;30.306;2023-04-24T00:24:46;100491.03;;;13.23;59.25
41250;BME280;26984;59.928;30.306;2023-04-24T00:27:14;100478.81;;;13.20;59.35
41250;BME280;26984;59.928;30.306;2023-04-24T00:29:41;100485.78;;;13.28;59.91
41250;BME280;26984;59.928;30.306;2023-04-24T00:32:09;100500.59;;;13.25;59.20
41250;BME280;26984;59.928;30.306;2023-04-24T00:34:36;100496.91;;;13.19;59.65
41250;BME280;26984;59.928;30.306;2023-04-24T00:37:03;100497.88;;;13.25;59.82
41250;BME280;26984;59.928;30.306;2023-04-24T00:39:33;100489.31;;;13.16;60.27
41250;BME280;26984;59.928;30.306;2023-04-24T00:42:00;100487.06;;;13.13;60.26
41250;BME280;26984;59.928;30.306;2023-04-24T00:44:28;100490.69;;;13.07;60.91
41250;BME280;26984;59.928;30.306;2023-04-24T00:46:55;100484.84;;;12.99;60.82
41250;BME280;26984;59.928;30.306;2023-04-24T00:49:24;100492.81;;;12.93;61.49
41250;BME280;26984;59.928;30.306;2023-04-24T00:51:51;100481.44;;;12.91;62.26
41250;BME280;26984;59.928;30.306;2023-04-24T00:54:19;100478.72;;;12.80;61.96
41250;BME280;26984;59.928;30.306;2023-04-24T00:56:48;100480.81;;;12.66;62.34
41250;BME280;26984;59.928;30.306;2023-04-24T00:59:17;100483.16;;;12.62;63.04
41250;BME280;26984;59.928;30.306;2023-04-24T01:01:45;100477.88;;;12.56;63.31
41250;BME280;26984;59.928;30.306;2023-04-24T01:04:12;100471.28;;;12.52;63.33
41250;BME280;26984;59.928;30.306;2023-04-24T01:06:41;100473.50;;;12.55;64.34
41250;BME280;26984;59.928;30.306;2023-04-24T01:09:10;100477.75;;;12.51;64.55
41250;BME280;26984;59.928;30.306;2023-04-24T01:11:39;100482.19;;;12.45;64.69
41250;BME280;26984;59.928;30.306;2023-04-24T01:14:09;100487.22;;;12.41;65.33
41250;BME280;26984;59.928;30.306;2023-04-24T01:16:37;100482.53;;;12.37;65.05
41250;BME280;26984;59.928;30.306;2023-04-24T01:19:05;100483.72;;;12.41;65.94
41250;BME280;26984;59.928;30.306;2023-04-24T01:21:33;100482.06;;;12.40;65.94
41250;BME280;26984;59.928;30.306;2023-04-24T01:24:05;100469.03;;;12.37;66.65
41250;BME280;26984;59.928;30.306;2023-04-24T01:26:33;100475.34;;;12.31;66.34
41250;BME280;26984;59.928;30.306;2023-04-24T01:29:00;100465.94;;;12.21;66.45
41250;BME280;26984;59.928;30.306;2023-04-24T01:31:28;100468.50;;;12.16;66.68
41250;BME280;26984;59.928;30.306;2023-04-24T01:33:55;100468.50;;;12.16;67.63
41250;BME280;26984;59.928;30.306;2023-04-24T01:36:23;100461.47;;;12.15;67.99
41250;BME280;26984;59.928;30.306;2023-04-24T01:38:51;100451.72;;;12.14;68.02
41250;BME280;26984;59.928;30.306;2023-04-24T01:41:20;100449.47;;;12.11;67.89
41250;BME280;26984;59.928;30.306;2023-04-24T01:43:47;100452.78;;;12.13;68.76
41250;BME280;26984;59.928;30.306;2023-04-24T01:46:15;100455.94;;;12.10;68.78
41250;BME280;26984;59.928;30.306;2023-04-24T01:48:43;100453.81;;;12.12;68.84
41250;BME280;26984;59.928;30.306;2023-04-24T01:51:11;100454.91;;;12.23;68.88
41250;BME280;26984;59.928;30.306;2023-04-24T01:53:39;100450.00;;;12.32;67.98
41250;BME280;26984;59.928;30.306;2023-04-24T01:56:06;100455.88;;;12.40;68.09
41250;BME280;26984;59.928;30.306;2023-04-24T01:58:35;100455.31;;;12.50;67.95
41250;BME280;26984;59.928;30.306;2023-04-24T02:01:03;100452.38;;;12.52;68.00
41250;BME280;26984;59.928;30.306;2023-04-24T02:03:30;100443.56;;;12.56;67.30
41250;BME280;26984;59.928;30.306;2023-04-24T02:05:58;100440.97;;;12.61;67.84
41250;BME280;26984;59.928;30.306;2023-04-24T02:08:25;100437.00;;;12.64;67.46
41250;BME280;26984;59.928;30.306;2023-04-24T02:10:53;100438.06;;;12.63;67.80
41250;BME280;26984;59.928;30.306;2023-04-24T02:13:20;100438.53;;;12.60;67.76
41250;BME280;26984;59.928;30.306;2023-04-24T02:15:49;100443.34;;;12.58;67.63
41250;BME280;26984;59.928;30.306;2023-04-24T02:18:17;100435.47;;;12.56;68.07
41250;BME280;26984;59.928;30.306;2023-04-24T02:20:44;100431.47;;;12.59;68.29
41250;BME280;26984;59.928;30.306;2023-04-24T02:23:11;100436.66;;;12.60;68.38
41250;BME280;26984;59.928;30.306;2023-04-24T02:25:39;100431.69;;;12.57;68.10
41250;BME280;26984;59.928;30.306;2023-04-24T02:28:07;100432.16;;;12.54;68.48
41250;BME280;26984;59.928;30.306;2023-04-24T02:30:34;100434.66;;;12.56;68.45
41250;BME280;26984;59.928;30.306;2023-04-24T02:33:03;100435.47;;;12.56;68.73
41250;BME280;26984;59.928;30.306;2023-04-24T02:35:30;100436.19;;;12.63;68.60
41250;BME280;26984;59.928;30.306;2023-04-24T02:37:58;100436.03;;;12.58;68.83
41250;BME280;26984;59.928;30.306;2023-04-24T02:40:25;100433.69;;;12.50;68.96
41250;BME280;26984;59.928;30.306;2023-04-24T02:42:53;100434.16;;;12.47;69.45
41250;BME280;26984;59.928;30.306;2023-04-24T02:45:20;100431.81;;;12.39;69.31
41250;BME280;26984;59.928;30.306;2023-04-24T02:47:48;100430.38;;;12.36;69.55
41250;BME280;26984;59.928;30.306;2023-04-24T02:50:17;100430.63;;;12.35;70.18
41250;BME280;26984;59.928;30.306;2023-04-24T02:52:44;100427.22;;;12.39;70.08
41250;BME280;26984;59.928;30.306;2023-04-24T02:55:12;100417.34;;;12.45;70.29
41250;BME280;26984;59.928;30.306;2023-04-24T02:57:40;100423.00;;;12.43;69.80
41250;BME280;26984;59.928;30.306;2023-04-24T03:00:08;100426.88;;;12.48;70.19
41250;BME280;26984;59.928;30.306;2023-04-24T03:02:35;100426.41;;;12.51;69.30
41250;BME280;26984;59.928;30.306;2023-04-24T03:05:03;100425.69;;;12.55;69.48
41250;BME280;26984;59.928;30.306;2023-04-24T03:07:32;100422.78;;;12.57;69.16
41250;BME280;26984;59.928;30.306;2023-04-24T03:10:00;100416.19;;;12.64;69.48
41250;BME280;26984;59.928;30.306;2023-04-24T03:12:27;100417.13;;;12.82;68.87
41250;BME280;26984;59.928;30.306;2023-04-24T03:14:55;100418.91;;;12.88;68.44
41250;BME280;26984;59.928;30.306;2023-04-24T03:17:22;100424.63;;;13.03;67.77
41250;BME280;26984;59.928;30.306;2023-04-24T03:19:49;100420.25;;;13.14;66.83
41250;BME280;26984;59.928;30.306;2023-04-24T03:22:17;100418.63;;;13.25;66.32
41250;BME280;26984;59.928;30.306;2023-04-24T03:24:46;100418.59;;;13.36;65.89
41250;BME280;26984;59.928;30.306;2023-04-24T03:27:16;100419.53;;;13.42;65.54
41250;BME280;26984;59.928;30.306;2023-04-24T03:29:50;100420.53;;;13.53;65.29
41250;BME280;26984;59.928;30.306;2023-04-24T03:32:23;100416.28;;;13.57;64.64
41250;BME280;26984;59.928;30.306;2023-04-24T03:34:51;100415.00;;;13.59;65.22
41250;BME280;26984;59.928;30.306;2023-04-24T03:37:20;100415.56;;;13.61;64.69
41250;BME280;26984;59.928;30.306;2023-04-24T03:40:03;100413.78;;;13.67;64.31
41250;BME280;26984;59.928;30.306;2023-04-24T03:42:34;100419.06;;;13.74;63.93
41250;BME280;26984;59.928;30.306;2023-04-24T03:45:01;100404.78;;;13.78;64.05
41250;BME280;26984;59.928;30.306;2023-04-24T03:47:33;100412.75;;;13.85;63.70
41250;BME280;26984;59.928;30.306;2023-04-24T03:50:03;100408.81;;;13.93;63.30
41250;BME280;26984;59.928;30.306;2023-04-24T03:52:32;100409.75;;;13.98;62.92
41250;BME280;26984;59.928;30.306;2023-04-24T03:54:59;100407.69;;;14.05;62.54
41250;BME280;26984;59.928;30.306;2023-04-24T03:57:30;100411.06;;;14.12;62.52
41250;BME280;26984;59.928;30.306;2023-04-24T04:00:10;100422.66;;;14.25;62.07
41250;BME280;26984;59.928;30.306;2023-04-24T04:02:48;100414.25;;;14.26;61.51
41250;BME280;26984;59.928;30.306;2023-04-24T04:05:15;100409.81;;;14.37;61.20
41250;BME280;26984;59.928;30.306;2023-04-24T04:07:42;100412.88;;;14.41;60.96
41250;BME280;26984;59.928;30.306;2023-04-24T04:10:10;100417.31;;;14.47;60.73
41250;BME280;26984;59.928;30.306;2023-04-24T04:12:39;100417.44;;;14.52;60.49
41250;BME280;26984;59.928;30.306;2023-04-24T04:15:06;100414.03;;;14.61;60.58
41250;BME280;26984;59.928;30.306;2023-04-24T04:17:35;100412.06;;;14.74;60.02
41250;BME280;26984;59.928;30.306;2023-04-24T04:20:06;100416.06;;;14.88;59.34
41250;BME280;26984;59.928;30.306;2023-04-24T04:22:36;100413.91;;;14.90;58.83
41250;BME280;26984;59.928;30.306;2023-04-24T04:25:07;100413.09;;;14.90;58.93
41250;BME280;26984;59.928;30.306;2023-04-24T04:27:35;100408.25;;;14.92;58.63
41250;BME280;26984;59.928;30.306;2023-04-24T04:30:10;100410.28;;;15.01;58.39
41250;BME280;26984;59.928;30.306;2023-04-24T04:32:46;100414.53;;;14.97;58.33
41250;BME280;26984;59.928;30.306;2023-04-24T04:35:14;100409.69;;;14.99;58.18
41250;BME280;26984;59.928;30.306;2023-04-24T04:37:42;100405.84;;;14.95;58.09
41250;BME280;26984;59.928;30.306;2023-04-24T04:40:30;100400.44;;;14.95;58.04
41250;BME280;26984;59.928;30.306;2023-04-24T04:43:02;100410.19;;;14.96;57.88
41250;BME280;26984;59.928;30.306;2023-04-24T04:45:38;100406.09;;;14.94;58.07
41250;BME280;26984;59.928;30.306;2023-04-24T04:48:27;100405.53;;;14.92;58.08
41250;BME280;26984;59.928;30.306;2023-04-24T04:50:57;100399.03;;;14.93;58.03
41250;BME280;26984;59.928;30.306;2023-04-24T04:53:26;100392.03;;;14.97;57.94
41250;BME280;26984;59.928;30.306;2023-04-24T04:55:53;100399.75;;;15.05;57.61
41250;BME280;26984;59.928;30.306;2023-04-24T04:58:26;100390.25;;;15.07;57.65
41250;BME280;26984;59.928;30.306;2023-04-24T05:00:58;100395.38;;;15.26;57.19
41250;BME280;26984;59.928;30.306;2023-04-24T05:03:40;100397.19;;;15.42;56.79
41250;BME280;26984;59.928;30.306;2023-04-24T05:06:10;100393.28;;;15.55;56.10
41250;BME280;26984;59.928;30.306;2023-04-24T05:08:39;100396.09;;;15.65;55.77
41250;BME280;26984;59.928;30.306;2023-04-24T05:11:10;100391.38;;;15.77;55.34
41250;BME280;26984;59.928;30.306;2023-04-24T05:13:39;100388.25;;;15.91;54.66
41250;BME280;26984;59.928;30.306;2023-04-24T05:16:13;100387.78;;;16.04;54.04
41250;BME280;26984;59.928;30.306;2023-04-24T05:18:41;100385.16;;;16.14;53.50
41250;BME280;26984;59.928;30.306;2023-04-24T05:21:12;100386.88;;;16.25;52.82
41250;BME280;26984;59.928;30.306;2023-04-24T05:23:42;100391.59;;;16.35;52.29
41250;BME280;26984;59.928;30.306;2023-04-24T05:26:11;100378.88;;;16.41;52.06
41250;BME280;26984;59.928;30.306;2023-04-24T05:28:41;100383.81;;;16.49;51.89
41250;BME280;26984;59.928;30.306;2023-04-24T05:31:11;100379.56;;;16.63;51.54
41250;BME280;26984;59.928;30.306;2023-04-24T05:33:41;100380.47;;;16.74;51.15
41250;BME280;26984;59.928;30.306;2023-04-24T05:36:08;100384.03;;;16.80;51.12
41250;BME280;26984;59.928;30.306;2023-04-24T05:38:36;100378.09;;;16.93;50.38
41250;BME280;26984;59.928;30.306;2023-04-24T05:41:04;100369.47;;;17.01;50.39
41250;BME280;26984;59.928;30.306;2023-04-24T05:43:31;100376.28;;;17.09;49.87
41250;BME280;26984;59.928;30.306;2023-04-24T05:45:59;100373.88;;;17.17;49.81
41250;BME280;26984;59.928;30.306;2023-04-24T05:48:27;100375.53;;;17.29;48.96
41250;BME280;26984;59.928;30.306;2023-04-24T05:50:56;100372.03;;;17.33;48.71
41250;BME280;26984;59.928;30.306;2023-04-24T05:53:25;100370.94;;;17.34;48.43
41250;BME280;26984;59.928;30.306;2023-04-24T05:55:53;100368.50;;;17.43;48.54
41250;BME280;26984;59.928;30.306;2023-04-24T05:58:21;100362.28;;;17.53;48.18
41250;BME280;26984;59.928;30.306;2023-04-24T06:00:49;100367.19;;;17.61;47.48
41250;BME280;26984;59.928;30.306;2023-04-24T06:03:17;100365.84;;;17.68;47.42
41250;BME280;26984;59.928;30.306;2023-04-24T06:05:49;100364.22;;;17.73;47.43
41250;BME280;26984;59.928;30.306;2023-04-24T06:08:18;100348.47;;;17.80;47.41
41250;BME280;26984;59.928;30.306;2023-04-24T06:10:47;100347.38;;;17.91;46.46
41250;BME280;26984;59.928;30.306;2023-04-24T06:13:17;100358.81;;;17.98;46.38
41250;BME280;26984;59.928;30.306;2023-04-24T06:16:01;100352.28;;;18.09;46.30
41250;BME280;26984;59.928;30.306;2023-04-24T06:18:34;100349.84;;;18.18;46.08
41250;BME280;26984;59.928;30.306;2023-04-24T06:21:02;100343.53;;;18.28;45.59
41250;BME280;26984;59.928;30.306;2023-04-24T06:23:31;100353.34;;;18.34;45.18
41250;BME280;26984;59.928;30.306;2023-04-24T06:25:58;100343.78;;;18.41;45.52
41250;BME280;26984;59.928;30.306;2023-04-24T06:28:26;100355.25;;;18.54;45.24
41250;BME280;26984;59.928;30.306;2023-04-24T06:30:53;100352.75;;;18.62;44.43
41250;BME280;26984;59.928;30.306;2023-04-24T06:33:21;100350.28;;;18.71;44.47
41250;BME280;26984;59.928;30.306;2023-04-24T06:35:49;100350.00;;;18.78;44.12
41250;BME280;26984;59.928;30.306;2023-04-24T06:38:16;100349.47;;;18.81;43.82
41250;BME280;26984;59.928;30.306;2023-04-24T06:40:45;100356.00;;;18.85;44.30
41250;BME280;26984;59.928;30.306;2023-04-24T06:43:13;100351.59;;;18.94;43.63
41250;BME280;26984;59.928;30.306;2023-04-24T06:45:40;100335.19;;;18.99;44.19
41250;BME280;26984;59.928;30.306;2023-04-24T06:48:09;100333.78;;;19.12;43.38
41250;BME280;26984;59.928;30.306;2023-04-24T06:50:37;100337.28;;;19.23;43.04
41250;BME280;26984;59.928;30.306;2023-04-24T06:53:04;100340.22;;;19.31;42.89
41250;BME280;26984;59.928;30.306;2023-04-24T06:55:32;100335.81;;;19.41;42.55
41250;BME280;26984;59.928;30.306;2023-04-24T06:58:01;100340.94;;;19.52;41.90
41250;BME280;26984;59.928;30.306;2023-04-24T07:00:28;100327.31;;;19.47;41.88
41250;BME280;26984;59.928;30.306;2023-04-24T07:02:56;100326.19;;;19.48;41.80
41250;BME280;26984;59.928;30.306;2023-04-24T07:05:23;100327.75;;;19.59;41.41
41250;BME280;26984;59.928;30.306;2023-04-24T07:07:51;100338.41;;;19.66;40.95
41250;BME280;26984;59.928;30.306;2023-04-24T07:10:19;100328.59;;;19.65;40.96
41250;BME280;26984;59.928;30.306;2023-04-24T07:12:47;100330.47;;;19.70;40.43
41250;BME280;26984;59.928;30.306;2023-04-24T07:15:17;100331.81;;;19.72;40.16
41250;BME280;26984;59.928;30.306;2023-04-24T07:17:45;100339.22;;;19.67;40.20
41250;BME280;26984;59.928;30.306;2023-04-24T07:20:12;100336.81;;;19.55;40.49
41250;BME280;26984;59.928;30.306;2023-04-24T07:22:40;100341.19;;;19.56;40.65
41250;BME280;26984;59.928;30.306;2023-04-24T07:25:08;100325.31;;;19.63;40.61
41250;BME280;26984;59.928;30.306;2023-04-24T07:27:36;100324.88;;;19.85;39.87
41250;BME280;26984;59.928;30.306;2023-04-24T07:30:03;100339.94;;;19.82;39.58
41250;BME280;26984;59.928;30.306;2023-04-24T07:32:32;100332.50;;;19.88;39.26
41250;BME280;26984;59.928;30.306;2023-04-24T07:35:00;100326.22;;;19.88;39.22
41250;BME280;26984;59.928;30.306;2023-04-24T07:37:28;100327.00;;;19.93;39.17
41250;BME280;26984;59.928;30.306;2023-04-24T07:39:56;100327.75;;;20.04;38.98
41250;BME280;26984;59.928;30.306;2023-04-24T07:42:24;100323.25;;;20.18;38.51
41250;BME280;26984;59.928;30.306;2023-04-24T07:44:51;100330.53;;;20.28;38.36
41250;BME280;26984;59.928;30.306;2023-04-24T07:47:19;100331.03;;;20.35;38.21
41250;BME280;26984;59.928;30.306;2023-04-24T07:49:48;100319.59;;;20.28;37.53
41250;BME280;26984;59.928;30.306;2023-04-24T07:52:15;100322.91;;;20.25;37.27
41250;BME280;26984;59.928;30.306;2023-04-24T07:54:43;100336.28;;;20.26;37.34
41250;BME280;26984;59.928;30.306;2023-04-24T07:57:10;100325.31;;;20.31;37.22
41250;BME280;26984;59.928;30.306;2023-04-24T07:59:38;100332.72;;;20.26;37.26
41250;BME280;26984;59.928;30.306;2023-04-24T08:02:05;100310.06;;;20.20;36.59
41250;BME280;26984;59.928;30.306;2023-04-24T08:04:33;100321.50;;;19.98;36.97
41250;BME280;26984;59.928;30.306;2023-04-24T08:07:02;100320.72;;;19.93;37.16
41250;BME280;26984;59.928;30.306;2023-04-24T08:09:29;100313.59;;;19.97;37.34
41250;BME280;26984;59.928;30.306;2023-04-24T08:11:57;100313.25;;;20.03;37.05
41250;BME280;26984;59.928;30.306;2023-04-24T08:14:24;100313.41;;;20.17;36.59
41250;BME280;26984;59.928;30.306;2023-04-24T08:16:53;100319.97;;;20.16;36.74
41250;BME280;26984;59.928;30.306;2023-04-24T08:19:21;100318.25;;;20.25;36.50
41250;BME280;26984;59.928;30.306;2023-04-24T08:21:49;100323.84;;;20.39;36.14
41250;BME280;26984;59.928;30.306;2023-04-24T08:24:17;100320.88;;;20.36;36.38
41250;BME280;26984;59.928;30.306;2023-04-24T08:26:45;100317.84;;;20.37;36.44
41250;BME280;26984;59.928;30.306;2023-04-24T08:29:16;100310.84;;;20.55;36.14
41250;BME280;26984;59.928;30.306;2023-04-24T08:31:43;100322.84;;;20.59;36.00
41250;BME280;26984;59.928;30.306;2023-04-24T08:34:11;100306.38;;;20.64;35.38
41250;BME280;26984;59.928;30.306;2023-04-24T08:36:38;100313.06;;;20.77;34.89
41250;BME280;26984;59.928;30.306;2023-04-24T08:39:07;100319.81;;;20.85;34.75
41250;BME280;26984;59.928;30.306;2023-04-24T08:41:36;100320.34;;;20.87;34.78
41250;BME280;26984;59.928;30.306;2023-04-24T08:44:04;100309.38;;;20.87;34.31
41250;BME280;26984;59.928;30.306;2023-04-24T08:46:32;100306.72;;;20.82;33.92
41250;BME280;26984;59.928;30.306;2023-04-24T08:49:00;100317.09;;;20.61;34.07
41250;BME280;26984;59.928;30.306;2023-04-24T08:51:28;100312.47;;;20.56;33.77
41250;BME280;26984;59.928;30.306;2023-04-24T08:53:56;100279.78;;;20.41;34.03
41250;BME280;26984;59.928;30.306;2023-04-24T08:56:24;100297.66;;;20.33;34.19
41250;BME280;26984;59.928;30.306;2023-04-24T08:58:53;100305.31;;;20.31;34.36
41250;BME280;26984;59.928;30.306;2023-04-24T09:01:22;100300.28;;;20.43;34.70
41250;BME280;26984;59.928;30.306;2023-04-24T09:03:50;100306.03;;;20.71;34.33
41250;BME280;26984;59.928;30.306;2023-04-24T09:06:18;100298.97;;;20.89;33.90
41250;BME280;26984;59.928;30.306;2023-04-24T09:08:46;100299.13;;;20.73;34.22
41250;BME280;26984;59.928;30.306;2023-04-24T09:11:15;100303.88;;;20.68;34.39
41250;BME280;26984;59.928;30.306;2023-04-24T09:13:43;100306.50;;;20.78;34.46
41250;BME280;26984;59.928;30.306;2023-04-24T09:16:12;100298.63;;;20.95;34.08
41250;BME280;26984;59.928;30.306;2023-04-24T09:18:41;100300.47;;;21.00;34.12
41250;BME280;26984;59.928;30.306;2023-04-24T09:21:09;100295.66;;;21.11;34.23
41250;BME280;26984;59.928;30.306;2023-04-24T09:23:36;100321.66;;;21.13;34.20
41250;BME280;26984;59.928;30.306;2023-04-24T09:26:04;100301.88;;;21.16;33.75
41250;BME280;26984;59.928;30.306;2023-04-24T09:28:32;100293.66;;;21.16;34.10
41250;BME280;26984;59.928;30.306;2023-04-24T09:31:02;100300.66;;;21.27;33.96
41250;BME280;26984;59.928;30.306;2023-04-24T09:33:31;100288.56;;;21.28;34.13
41250;BME280;26984;59.928;30.306;2023-04-24T09:35:59;100293.94;;;21.39;33.67
41250;BME280;26984;59.928;30.306;2023-04-24T09:38:30;100292.81;;;21.40;33.72
41250;BME280;26984;59.928;30.306;2023-04-24T09:40:59;100269.78;;;21.41;33.74
41250;BME280;26984;59.928;30.306;2023-04-24T09:43:26;100283.91;;;21.67;33.42
41250;BME280;26984;59.928;30.306;2023-04-24T09:45:55;100288.75;;;21.56;33.53
41250;BME280;26984;59.928;30.306;2023-04-24T09:48:29;100282.72;;;21.54;33.86
41250;BME280;26984;59.928;30.306;2023-04-24T09:50:59;100295.69;;;21.67;33.88
41250;BME280;26984;59.928;30.306;2023-04-24T09:53:27;100269.00;;;21.73;33.41
41250;BME280;26984;59.928;30.306;2023-04-24T09:55:55;100293.28;;;21.80;33.31
41250;BME280;26984;59.928;30.306;2023-04-24T09:58:26;100291.72;;;21.92;33.25
41250;BME280;26984;59.928;30.306;2023-04-24T10:00:53;100280.25;;;22.04;32.31
41250;BME280;26984;59.928;30.306;2023-04-24T10:03:23;100301.00;;;22.10;31.81
41250;BME280;26984;59.928;30.306;2023-04-24T10:05:51;100294.94;;;21.94;32.02
41250;BME280;26984;59.928;30.306;2023-04-24T10:08:21;100300.97;;;21.96;32.04
41250;BME280;26984;59.928;30.306;2023-04-24T10:10:49;100297.25;;;22.06;32.31
41250;BME280;26984;59.928;30.306;2023-04-24T10:13:16;100304.13;;;22.04;32.17
41250;BME280;26984;59.928;30.306;2023-04-24T10:15:44;100294.53;;;21.87;32.33
41250;BME280;26984;59.928;30.306;2023-04-24T10:18:12;100287.47;;;22.00;32.36
41250;BME280;26984;59.928;30.306;2023-04-24T10:20:40;100300.88;;;22.02;32.35
41250;BME280;26984;59.928;30.306;2023-04-24T10:23:07;100297.75;;;22.08;32.45
41250;BME280;26984;59.928;30.306;2023-04-24T10:25:36;100285.09;;;22.26;32.25
41250;BME280;26984;59.928;30.306;2023-04-24T10:28:04;100292.47;;;22.12;32.52
41250;BME280;26984;59.928;30.306;2023-04-24T10:30:32;100300.25;;;22.05;32.65
41250;BME280;26984;59.928;30.306;2023-04-24T10:33:02;100297.03;;;22.03;32.78
41250;BME280;26984;59.928;30.306;2023-04-24T10:35:30;100308.91;;;22.12;32.65
41250;BME280;26984;59.928;30.306;2023-04-24T10:37:59;100295.66;;;22.19;32.73
41250;BME280;26984;59.928;30.306;2023-04-24T10:40:27;100307.75;;;22.18;32.81
41250;BME280;26984;59.928;30.306;2023-04-24T10:42:58;100304.25;;;22.12;32.54
41250;BME280;26984;59.928;30.306;2023-04-24T10:45:26;100299.22;;;22.19;32.54
41250;BME280;26984;59.928;30.306;2023-04-24T10:47:56;100302.69;;;22.25;32.66
41250;BME280;26984;59.928;30.306;2023-04-24T10:50:28;100304.63;;;22.25;32.37
41250;BME280;26984;59.928;30.306;2023-04-24T10:53:04;100299.84;;;22.30;32.50
41250;BME280;26984;59.928;30.306;2023-04-24T10:55:39;100298.13;;;22.34;32.40
41250;BME280;26984;59.928;30.306;2023-04-24T10:58:09;100298.25;;;22.43;32.39
41250;BME280;26984;59.928;30.306;2023-04-24T11:00:37;100299.88;;;22.71;31.94
41250;BME280;26984;59.928;30.306;2023-04-24T11:03:05;100297.66;;;22.74;31.66
41250;BME280;26984;59.928;30.306;2023-04-24T11:08:25;100306.28;;;22.67;32.00
41250;BME280;26984;59.928;30.306;2023-04-24T11:10:57;100310.34;;;22.69;32.02
41250;BME280;26984;59.928;30.306;2023-04-24T11:13:27;100306.69;;;22.74;31.77
41250;BME280;26984;59.928;30.306;2023-04-24T11:16:13;100311.34;;;22.87;31.87
41250;BME280;26984;59.928;30.306;2023-04-24T11:18:41;100321.94;;;22.80;31.70
41250;BME280;26984;59.928;30.306;2023-04-24T11:21:11;100315.22;;;22.59;32.02
41250;BME280;26984;59.928;30.306;2023-04-24T11:23:39;100308.19;;;22.25;32.29
41250;BME280;26984;59.928;30.306;2023-04-24T11:26:11;100317.91;;;22.17;32.74
41250;BME280;26984;59.928;30.306;2023-04-24T11:28:45;100322.13;;;22.10;32.85
41250;BME280;26984;59.928;30.306;2023-04-24T11:34:05;100324.69;;;21.87;33.33
41250;BME280;26984;59.928;30.306;2023-04-24T11:36:32;100329.91;;;21.70;33.50
41250;BME280;26984;59.928;30.306;2023-04-24T11:39:00;100328.16;;;21.60;33.70
41250;BME280;26984;59.928;30.306;2023-04-24T11:41:28;100331.97;;;21.59;33.72
41250;BME280;26984;59.928;30.306;2023-04-24T11:43:57;100348.97;;;21.42;34.71
41250;BME280;26984;59.928;30.306;2023-04-24T11:46:28;100364.97;;;20.87;35.81
41250;BME280;26984;59.928;30.306;2023-04-24T11:48:57;100344.16;;;20.33;36.81
41250;BME280;26984;59.928;30.306;2023-04-24T11:51:25;100359.75;;;20.03;37.85
41250;BME280;26984;59.928;30.306;2023-04-24T11:53:53;100366.06;;;19.49;39.02
41250;BME280;26984;59.928;30.306;2023-04-24T11:56:21;100381.59;;;18.99;40.43
41250;BME280;26984;59.928;30.306;2023-04-24T11:58:48;100391.50;;;18.75;41.67
41250;BME280;26984;59.928;30.306;2023-04-24T12:01:20;100381.97;;;18.52;42.15
41250;BME280;26984;59.928;30.306;2023-04-24T12:03:48;100385.25;;;18.38;43.08
41250;BME280;26984;59.928;30.306;2023-04-24T12:06:17;100389.91;;;18.07;44.24
41250;BME280;26984;59.928;30.306;2023-04-24T12:08:48;100382.25;;;17.99;44.56
41250;BME280;26984;59.928;30.306;2023-04-24T12:11:16;100387.97;;;17.82;45.02
41250;BME280;26984;59.928;30.306;2023-04-24T12:13:46;100383.81;;;17.75;45.35
41250;BME280;26984;59.928;30.306;2023-04-24T12:16:14;100383.84;;;17.69;45.76
41250;BME280;26984;59.928;30.306;2023-04-24T12:18:43;100386.59;;;17.80;45.35
41250;BME280;26984;59.928;30.306;2023-04-24T12:21:15;100387.16;;;17.77;45.49
41250;BME280;26984;59.928;30.306;2023-04-24T12:23:43;100385.19;;;17.62;45.78
41250;BME280;26984;59.928;30.306;2023-04-24T12:26:10;100386.53;;;17.54;45.77
41250;BME280;26984;59.928;30.306;2023-04-24T12:28:38;100387.84;;;17.41;46.51
41250;BME280;26984;59.928;30.306;2023-04-24T12:31:06;100392.72;;;17.39;46.59
41250;BME280;26984;59.928;30.306;2023-04-24T12:33:34;100394.63;;;17.34;46.70
41250;BME280;26984;59.928;30.306;2023-04-24T12:36:03;100396.78;;;17.32;46.92
41250;BME280;26984;59.928;30.306;2023-04-24T12:38:32;100408.78;;;17.31;47.33
41250;BME280;26984;59.928;30.306;2023-04-24T12:41:06;100397.59;;;17.27;47.52
41250;BME280;26984;59.928;30.306;2023-04-24T12:43:34;100413.38;;;17.25;47.78
41250;BME280;26984;59.928;30.306;2023-04-24T12:46:01;100403.56;;;17.24;47.85
41250;BME280;26984;59.928;30.306;2023-04-24T12:48:29;100405.47;;;17.29;48.06
41250;BME280;26984;59.928;30.306;2023-04-24T12:50:57;100415.31;;;17.30;48.13
41250;BME280;26984;59.928;30.306;2023-04-24T12:53:28;100417.47;;;17.28;48.20